Estación de Monte Patria - Chilecito

Ultimos registro cada 15 minutos 87
Estación Fecha / Hora Temperatura Humedad Lluvia Velocidad Dirección Radiación Presion
87 Monte Patria - Chilecito 03-05-2026 21:30 15 50,5 0 0 336 0,6 938,6
86 Monte Patria - Chilecito 03-05-2026 21:15 16,2 47,5 0 0 336 0,6 938,8
85 Monte Patria - Chilecito 03-05-2026 21:00 14,9 51,5 0 0 336 0,6 938,6
84 Monte Patria - Chilecito 03-05-2026 20:45 15,1 52 0 0 336 0,6 938,6
83 Monte Patria - Chilecito 03-05-2026 20:30 15,4 51,4 0 0 336 0,6 938,5
82 Monte Patria - Chilecito 03-05-2026 20:15 15,8 50,3 0 0 336 0,6 938,3
81 Monte Patria - Chilecito 03-05-2026 20:00 16,4 49 0 0 336 0,6 938,2
80 Monte Patria - Chilecito 03-05-2026 19:45 16,5 48,1 0 0 336 0,6 937,8
79 Monte Patria - Chilecito 03-05-2026 19:30 16,9 47,9 0 0 336 0,6 937,6
78 Monte Patria - Chilecito 03-05-2026 19:15 17,8 44,9 0 0 336 0,6 937,7
77 Monte Patria - Chilecito 03-05-2026 19:00 18 44,8 0 0 336 0,6 937,6
76 Monte Patria - Chilecito 03-05-2026 18:45 18,4 43,5 0 0 336 0,6 937,6
75 Monte Patria - Chilecito 03-05-2026 18:30 18,3 45 0 0 336 0,6 937,4
74 Monte Patria - Chilecito 03-05-2026 18:15 19,2 42,6 0 0 336 0,6 937,4
73 Monte Patria - Chilecito 03-05-2026 18:00 20,4 39,5 0 0 336 4,4 937,4
72 Monte Patria - Chilecito 03-05-2026 17:45 21,3 37,5 0 0 320 8,1 937,2
71 Monte Patria - Chilecito 03-05-2026 17:30 22,4 35 0 0 314 10,6 937
70 Monte Patria - Chilecito 03-05-2026 17:15 24,1 30,4 0 0 306 13,1 936,9
69 Monte Patria - Chilecito 03-05-2026 17:00 25,7 29 0 0 320 178,1 936,6
68 Monte Patria - Chilecito 03-05-2026 16:45 26 28 0 0 338 220,6 936,8
67 Monte Patria - Chilecito 03-05-2026 16:30 26,6 27,5 0 0 337 260,6 936,6
66 Monte Patria - Chilecito 03-05-2026 16:15 27,4 25,2 0 0 307 303,1 936,8
65 Monte Patria - Chilecito 03-05-2026 16:00 27,6 25,4 0 0 303 343,1 936,8
64 Monte Patria - Chilecito 03-05-2026 15:45 29 22,6 0 0 299 63,1 936,8
63 Monte Patria - Chilecito 03-05-2026 15:30 29,3 20,7 0 0,5 293 391,9 936,9
62 Monte Patria - Chilecito 03-05-2026 15:15 29,4 19,6 0 0,5 312 274,4 936,5
61 Monte Patria - Chilecito 03-05-2026 15:00 29,8 19 0 0,5 296 111,9 936,5
60 Monte Patria - Chilecito 03-05-2026 14:45 29,8 18,3 0 0 317 516,9 936,5
59 Monte Patria - Chilecito 03-05-2026 14:30 29,8 20 0 0 295 526,9 936,6
58 Monte Patria - Chilecito 03-05-2026 14:15 29,8 17,3 0 0,5 333 276,9 936,8
57 Monte Patria - Chilecito 03-05-2026 14:00 30 17,3 0 0,5 334 583,1 937,1
56 Monte Patria - Chilecito 03-05-2026 13:45 29,5 18,6 0 0,5 329 554,4 937,3
55 Monte Patria - Chilecito 03-05-2026 13:30 29,3 18,1 0 0,5 334 611,9 937,5
54 Monte Patria - Chilecito 03-05-2026 13:15 29 18 0 0,5 358 615,6 937,6
53 Monte Patria - Chilecito 03-05-2026 13:00 28,9 18,8 0 0,5 341 624,4 937,6
52 Monte Patria - Chilecito 03-05-2026 12:45 28,9 19,1 0 0,5 341 624,4 937,7
51 Monte Patria - Chilecito 03-05-2026 12:30 28,6 19,3 0 0,5 330 621,9 937,8
50 Monte Patria - Chilecito 03-05-2026 12:15 29 19,5 0 0,5 307 619,4 937,9
49 Monte Patria - Chilecito 03-05-2026 12:00 28,8 19,3 0 0 338 611,9 938
48 Monte Patria - Chilecito 03-05-2026 11:45 28,4 20 0 0 20 600,6 938,1
47 Monte Patria - Chilecito 03-05-2026 11:30 27,2 21,5 0 0 18 585,6 938,2
46 Monte Patria - Chilecito 03-05-2026 11:15 26,5 20,9 0 0 338 565,6 938,5
45 Monte Patria - Chilecito 03-05-2026 11:00 25,8 20,8 0 0 20 51,9 938,6
44 Monte Patria - Chilecito 03-05-2026 10:45 24,2 20,4 0 0 44 50,6 938,6
43 Monte Patria - Chilecito 03-05-2026 10:30 23,7 22,3 0 0 313 390,6 938,6
42 Monte Patria - Chilecito 03-05-2026 10:15 23,4 21,3 0 0 307 476,9 938,4
41 Monte Patria - Chilecito 03-05-2026 10:00 23,8 19,2 0 0 307 448,1 938,2
40 Monte Patria - Chilecito 03-05-2026 09:45 22,8 21,3 0 0 302 413,1 938,2
39 Monte Patria - Chilecito 03-05-2026 09:30 23,7 22,1 0 0 291 379,4 938,1
38 Monte Patria - Chilecito 03-05-2026 09:15 23,1 21,8 0 0 291 41,9 938,2
37 Monte Patria - Chilecito 03-05-2026 09:00 21,2 23,9 0 0 291 39,4 938
36 Monte Patria - Chilecito 03-05-2026 08:45 19,8 25,6 0 0 291 39,4 938
35 Monte Patria - Chilecito 03-05-2026 08:30 17,4 27,1 0 0 291 120,6 938,1
34 Monte Patria - Chilecito 03-05-2026 08:15 16,4 30,2 0 0 291 179,4 938,3
33 Monte Patria - Chilecito 03-05-2026 08:00 13,7 29,6 0 0 291 10,6 938
32 Monte Patria - Chilecito 03-05-2026 07:45 13,4 29,5 0 0 291 8,1 938,1
31 Monte Patria - Chilecito 03-05-2026 07:30 12,1 30,8 0 0 291 4,4 937,9
30 Monte Patria - Chilecito 03-05-2026 07:15 12,9 31,7 0 0 289 1,9 937,9
29 Monte Patria - Chilecito 03-05-2026 07:00 13,1 30,3 0 0 288 0,6 937,5
28 Monte Patria - Chilecito 03-05-2026 06:45 11,6 36,2 0 0 288 0,6 937,7
27 Monte Patria - Chilecito 03-05-2026 06:30 11,5 35,3 0 0 288 0,6 937,5
26 Monte Patria - Chilecito 03-05-2026 06:15 11,5 36,2 0 0 288 0,6 937,5
25 Monte Patria - Chilecito 03-05-2026 06:00 12,2 34,1 0 0 286 0,6 937,5
24 Monte Patria - Chilecito 03-05-2026 05:45 11,3 37,8 0 0 286 0,6 937,5
23 Monte Patria - Chilecito 03-05-2026 05:30 11,8 38,5 0 0 286 0,6 937,4
22 Monte Patria - Chilecito 03-05-2026 05:15 12,8 35,8 0 0 286 0,6 937,1
21 Monte Patria - Chilecito 03-05-2026 05:00 13,1 34,2 0 0 286 0,6 937
20 Monte Patria - Chilecito 03-05-2026 04:45 12,5 37 0 0 286 0,6 936,8
19 Monte Patria - Chilecito 03-05-2026 04:30 12,9 36,7 0 0 286 0,6 936,8
18 Monte Patria - Chilecito 03-05-2026 04:15 13,4 36,5 0 0 286 0,6 936,6
17 Monte Patria - Chilecito 03-05-2026 04:00 14 34,9 0 0 286 0,6 936,9
16 Monte Patria - Chilecito 03-05-2026 03:45 14,7 34 0 0 286 0,6 936,9
15 Monte Patria - Chilecito 03-05-2026 03:30 14,4 35 0 0 286 0,6 936,7
14 Monte Patria - Chilecito 03-05-2026 03:15 14,6 36,3 0 0 286 0,6 936,9
13 Monte Patria - Chilecito 03-05-2026 03:00 14,9 36,3 0 0 286 0,6 936,8
12 Monte Patria - Chilecito 03-05-2026 02:45 14 39,2 0 0 286 0,6 936,9
11 Monte Patria - Chilecito 03-05-2026 02:30 15 37,5 0 0 286 0,6 937
10 Monte Patria - Chilecito 03-05-2026 02:15 15 37,8 0 0 286 0,6 937,1
9 Monte Patria - Chilecito 03-05-2026 02:00 14,9 38,4 0 0 286 0,6 937,3
8 Monte Patria - Chilecito 03-05-2026 01:45 14,5 39,9 0 0 286 0,6 937,4
7 Monte Patria - Chilecito 03-05-2026 01:30 14,5 40,7 0 0 286 0,6 937,6
6 Monte Patria - Chilecito 03-05-2026 01:15 14,6 40,6 0 0 286 0,6 937,5
5 Monte Patria - Chilecito 03-05-2026 01:00 14,5 41,4 0 0 286 0,6 937,6
4 Monte Patria - Chilecito 03-05-2026 00:45 15,1 39,5 0 0 286 0,6 937,7
3 Monte Patria - Chilecito 03-05-2026 00:30 14,9 41,7 0 0 286 0,6 938
2 Monte Patria - Chilecito 03-05-2026 00:15 15 40 0 0 286 0,6 938,2
1 Monte Patria - Chilecito 03-05-2026 00:00 14,6 40,9 0 0 286 0,6 938,2